createdAt,value
2022-11-18T00:01:22.780Z,14.83
2022-11-18T00:03:51.703Z,11.47
2022-11-18T00:06:29.232Z,12.90
2022-11-18T00:08:58.701Z,12.43
2022-11-18T00:11:45.642Z,12.10
2022-11-18T00:14:24.720Z,11.43
2022-11-18T00:17:01.559Z,11.40
2022-11-18T00:19:31.707Z,10.43
2022-11-18T00:21:59.126Z,10.23
2022-11-18T00:24:27.241Z,10.43
2022-11-18T00:26:55.695Z,10.27
2022-11-18T00:29:24.379Z,10.23
2022-11-18T00:31:51.527Z,11.33
2022-11-18T00:34:19.538Z,10.50
2022-11-18T00:36:47.888Z,10.53
2022-11-18T00:39:19.318Z,11.00
2022-11-18T00:42:06.114Z,9.50
2022-11-18T00:44:35.696Z,11.57
2022-11-18T00:47:03.204Z,13.10
2022-11-18T00:49:30.788Z,9.93
2022-11-18T00:51:57.946Z,9.63
2022-11-18T00:54:25.348Z,10.03
2022-11-18T00:56:52.484Z,9.80
2022-11-18T00:59:20.512Z,10.27
2022-11-18T01:01:49.333Z,11.00
2022-11-18T01:04:17.963Z,12.10
2022-11-18T01:06:45.698Z,12.90
2022-11-18T01:09:13.201Z,9.80
2022-11-18T01:11:59.071Z,10.20
2022-11-18T01:14:27.962Z,10.70
2022-11-18T01:16:56.540Z,10.63
2022-11-18T01:19:25.041Z,10.93
2022-11-18T01:21:52.465Z,10.77
2022-11-18T01:24:20.159Z,10.37
2022-11-18T01:26:47.306Z,10.80
2022-11-18T01:29:16.048Z,10.73
2022-11-18T01:32:02.081Z,10.83
2022-11-18T01:34:30.666Z,11.30
2022-11-18T01:36:58.711Z,11.50
2022-11-18T01:39:26.154Z,10.30
2022-11-18T01:41:53.318Z,11.53
2022-11-18T01:44:59.375Z,12.30
2022-11-18T01:47:31.769Z,10.43
2022-11-18T01:50:00.870Z,10.43
2022-11-18T01:52:28.762Z,10.13
2022-11-18T01:55:00.715Z,9.77
2022-11-18T01:57:30.734Z,11.17
2022-11-18T02:00:00.644Z,10.50
2022-11-18T02:02:27.966Z,11.60
2022-11-18T02:04:57.906Z,11.30
2022-11-18T02:07:25.642Z,10.87
2022-11-18T02:09:56.211Z,8.73
2022-11-18T02:12:23.926Z,10.77
2022-11-18T02:14:52.452Z,10.93
2022-11-18T02:17:22.629Z,10.57
2022-11-18T02:20:24.808Z,9.70
2022-11-18T02:22:58.076Z,10.57
2022-11-18T02:25:47.080Z,10.37
2022-11-18T02:28:33.474Z,9.83
2022-11-18T02:31:13.742Z,10.20
2022-11-18T02:34:02.618Z,9.53
2022-11-18T02:36:45.851Z,9.10
2022-11-18T02:39:20.205Z,9.47
2022-11-18T02:41:49.516Z,10.97
2022-11-18T02:44:19.558Z,10.20
2022-11-18T02:46:51.667Z,10.23
2022-11-18T02:49:33.352Z,10.27
2022-11-18T02:52:02.698Z,8.10
2022-11-18T02:54:33.108Z,8.43
2022-11-18T02:57:04.676Z,9.27
2022-11-18T02:59:32.422Z,8.80
2022-11-18T03:02:00.409Z,8.77
2022-11-18T03:04:28.079Z,8.77
2022-11-18T03:07:17.458Z,9.27
2022-11-18T03:09:48.365Z,10.13
2022-11-18T03:12:21.376Z,8.17
2022-11-18T03:14:54.304Z,9.33
2022-11-18T03:17:40.674Z,9.13
2022-11-18T03:20:26.720Z,8.67
2022-11-18T03:22:59.828Z,7.90
2022-11-18T03:25:50.532Z,10.23
2022-11-18T03:28:28.368Z,9.33
2022-11-18T03:31:28.728Z,9.50
2022-11-18T03:34:08.372Z,11.10
2022-11-18T03:36:40.523Z,11.27
2022-11-18T03:39:10.854Z,12.03
2022-11-18T03:41:45.517Z,10.90
2022-11-18T03:44:23.324Z,10.00
2022-11-18T03:47:00.367Z,10.00
2022-11-18T03:49:45.080Z,12.83
2022-11-18T03:52:18.499Z,10.53
2022-11-18T03:54:50.315Z,12.07
2022-11-18T03:57:41.266Z,10.97
2022-11-18T04:00:14.743Z,12.23
2022-11-18T04:02:42.634Z,11.90
2022-11-18T04:05:13.159Z,12.27
2022-11-18T04:07:57.268Z,14.43
2022-11-18T04:10:41.581Z,13.23
2022-11-18T04:13:20.522Z,12.07
2022-11-18T04:15:47.955Z,11.87
2022-11-18T04:18:14.974Z,13.13
2022-11-18T04:20:42.526Z,10.33
2022-11-18T04:23:09.588Z,12.13
2022-11-18T04:25:37.158Z,14.17
2022-11-18T04:28:04.614Z,10.27
2022-11-18T04:30:32.376Z,10.67
2022-11-18T04:32:59.887Z,12.17
2022-11-18T04:35:28.098Z,11.43
2022-11-18T04:37:55.210Z,10.10
2022-11-18T04:40:22.921Z,12.07
2022-11-18T04:42:50.062Z,11.77
2022-11-18T04:45:17.502Z,9.10
2022-11-18T04:47:45.147Z,9.23
2022-11-18T04:50:12.625Z,10.63
2022-11-18T04:52:39.846Z,10.47
2022-11-18T04:55:07.670Z,11.27
2022-11-18T04:57:34.854Z,11.20
2022-11-18T05:00:02.777Z,9.50
2022-11-18T05:02:30.304Z,9.17
2022-11-18T05:04:57.734Z,11.77
2022-11-18T05:07:25.300Z,9.87
2022-11-18T05:09:54.607Z,10.63
2022-11-18T05:12:40.324Z,9.50
2022-11-18T05:15:08.238Z,9.90
2022-11-18T05:17:36.813Z,9.67
2022-11-18T05:20:05.963Z,10.73
2022-11-18T05:22:33.052Z,10.90
2022-11-18T05:25:00.747Z,10.30
2022-11-18T05:27:28.015Z,9.87
2022-11-18T05:29:55.445Z,9.60
2022-11-18T05:32:22.610Z,8.40
2022-11-18T05:34:50.101Z,10.30
2022-11-18T05:37:17.373Z,8.77
2022-11-18T05:39:44.762Z,9.50
2022-11-18T05:42:31.790Z,9.87
2022-11-18T05:44:59.303Z,8.93
2022-11-18T05:47:27.179Z,10.50
2022-11-18T05:49:54.816Z,8.97
2022-11-18T05:52:21.938Z,9.23
2022-11-18T05:54:50.962Z,7.63
2022-11-18T05:57:18.193Z,9.83
2022-11-18T05:59:45.719Z,9.80
2022-11-18T06:02:17.171Z,8.07
2022-11-18T06:04:53.465Z,7.00
2022-11-18T06:07:25.555Z,8.73
2022-11-18T06:10:04.789Z,6.60
2022-11-18T06:12:37.358Z,7.90
2022-11-18T06:15:23.365Z,7.00
2022-11-18T06:17:59.983Z,6.53
2022-11-18T06:20:29.520Z,6.50
2022-11-18T06:22:58.410Z,8.80
2022-11-18T06:25:26.173Z,7.70
2022-11-18T06:27:57.200Z,6.63
2022-11-18T06:30:24.624Z,7.07
2022-11-18T06:32:51.730Z,5.50
2022-11-18T06:35:19.820Z,5.27
2022-11-18T06:37:47.524Z,5.67
2022-11-18T06:40:15.299Z,5.63
2022-11-18T06:43:01.954Z,6.47
2022-11-18T06:45:30.074Z,6.37
2022-11-18T06:47:58.601Z,5.57
2022-11-18T06:50:29.085Z,6.30
2022-11-18T06:52:56.761Z,6.70
2022-11-18T06:55:24.720Z,6.30
2022-11-18T06:57:51.939Z,6.63
2022-11-18T07:00:20.138Z,6.40
2022-11-18T07:02:50.132Z,7.03
2022-11-18T07:05:18.980Z,6.63
2022-11-18T07:07:46.434Z,5.33
2022-11-18T07:10:15.896Z,6.50
2022-11-18T07:12:43.049Z,5.80
2022-11-18T07:15:10.840Z,5.80
2022-11-18T07:17:37.966Z,7.03
2022-11-18T07:20:05.895Z,5.70
2022-11-18T07:22:33.023Z,6.60
2022-11-18T07:25:00.530Z,5.83
2022-11-18T07:27:28.435Z,7.30
2022-11-18T07:29:56.510Z,6.10
2022-11-18T07:32:23.721Z,8.33
2022-11-18T07:34:53.609Z,6.73
2022-11-18T07:37:20.720Z,7.30
2022-11-18T07:39:49.414Z,7.13
2022-11-18T07:42:16.617Z,8.33
2022-11-18T07:44:44.127Z,8.90
2022-11-18T07:47:11.263Z,8.73
2022-11-18T07:49:38.981Z,7.23
2022-11-18T07:52:07.366Z,8.30
2022-11-18T07:54:34.967Z,8.03
2022-11-18T07:57:02.193Z,6.87
2022-11-18T07:59:29.709Z,6.03
2022-11-18T08:01:57.670Z,6.70
2022-11-18T08:04:25.319Z,7.53
2022-11-18T08:06:53.924Z,5.90
2022-11-18T08:09:21.575Z,6.83
2022-11-18T08:11:49.266Z,7.17
2022-11-18T08:14:16.758Z,6.57
2022-11-18T08:16:43.977Z,8.20
2022-11-18T08:19:11.439Z,6.37
2022-11-18T08:21:38.488Z,6.90
2022-11-18T08:24:06.887Z,5.87
2022-11-18T08:26:34.064Z,7.73
2022-11-18T08:29:01.716Z,6.00
2022-11-18T08:31:33.134Z,7.17
2022-11-18T08:34:06.384Z,5.10
2022-11-18T08:36:37.315Z,6.03
2022-11-18T08:39:08.464Z,6.30
2022-11-18T08:41:46.918Z,5.87
2022-11-18T08:44:16.574Z,6.30
2022-11-18T08:46:46.470Z,5.80
2022-11-18T08:49:13.950Z,6.00
2022-11-18T08:51:41.668Z,5.73
2022-11-18T08:54:09.898Z,4.97
2022-11-18T08:56:37.091Z,5.80
2022-11-18T08:59:05.576Z,5.67
2022-11-18T09:01:35.318Z,5.23
2022-11-18T09:04:03.004Z,4.27
2022-11-18T09:06:34.963Z,5.00
2022-11-18T09:09:06.321Z,3.87
2022-11-18T09:11:34.672Z,5.30
2022-11-18T09:16:49.909Z,4.90
2022-11-18T09:19:45.767Z,5.00
2022-11-18T09:22:08.880Z,5.23
2022-11-18T09:24:37.994Z,3.77
2022-11-18T09:27:10.750Z,4.00
2022-11-18T09:29:40.946Z,4.63
2022-11-18T09:32:08.358Z,4.23
2022-11-18T09:34:36.323Z,4.40
2022-11-18T09:37:06.999Z,5.53
2022-11-18T09:39:37.719Z,4.50
2022-11-18T09:42:19.217Z,4.37
2022-11-18T09:45:01.180Z,4.63
2022-11-18T09:47:31.806Z,5.00
2022-11-18T09:50:15.164Z,5.53
2022-11-18T09:53:09.657Z,35.90
2022-11-18T09:55:39.563Z,6.00
2022-11-18T09:58:07.924Z,6.00
2022-11-18T10:00:35.228Z,6.20
2022-11-18T10:03:27.437Z,7.50
2022-11-18T10:06:23.518Z,6.83
2022-11-18T10:09:00.941Z,4.90
2022-11-18T10:11:47.543Z,5.57
2022-11-18T10:14:29.922Z,6.80
2022-11-18T10:17:16.986Z,5.97
2022-11-18T10:19:57.094Z,5.70
2022-11-18T10:22:40.243Z,5.77
2022-11-18T10:25:17.137Z,7.13
2022-11-18T10:27:46.966Z,4.60
2022-11-18T10:30:20.644Z,7.20
2022-11-18T10:33:19.803Z,6.20
2022-11-18T10:35:47.555Z,5.40
2022-11-18T10:38:15.144Z,5.87
2022-11-18T10:40:52.907Z,6.17
2022-11-18T10:43:42.220Z,6.87
2022-11-18T10:46:40.620Z,7.23
2022-11-18T10:49:11.773Z,5.33
2022-11-18T10:51:49.552Z,5.37
2022-11-18T10:54:23.849Z,4.70
2022-11-18T10:57:11.518Z,5.50
2022-11-18T10:59:47.087Z,5.20
2022-11-18T11:02:23.238Z,5.00
2022-11-18T11:04:51.907Z,4.50
2022-11-18T11:07:37.109Z,4.93
2022-11-18T11:10:09.733Z,4.60
2022-11-18T11:12:57.338Z,4.47
2022-11-18T11:15:46.319Z,4.07
2022-11-18T11:18:44.081Z,4.30
2022-11-18T11:21:20.168Z,4.53
2022-11-18T11:23:47.798Z,3.97
2022-11-18T11:29:55.415Z,10.20
2022-11-18T11:32:41.301Z,5.10
2022-11-18T11:35:23.312Z,4.37
2022-11-18T11:38:00.835Z,4.50
2022-11-18T11:41:04.597Z,3.90
2022-11-18T11:43:37.919Z,3.67
2022-11-18T11:46:29.834Z,5.23
2022-11-18T11:49:00.557Z,4.33
2022-11-18T11:51:40.441Z,4.33
2022-11-18T11:54:41.245Z,4.33
2022-11-18T11:57:18.244Z,4.10
2022-11-18T12:00:01.073Z,4.03
2022-11-18T12:02:44.705Z,3.27
2022-11-18T12:05:31.309Z,3.80
2022-11-18T12:08:15.290Z,3.33
2022-11-18T12:11:03.039Z,3.87
2022-11-18T12:14:04.345Z,3.60
2022-11-18T12:16:31.721Z,3.50
2022-11-18T12:19:23.589Z,3.30
2022-11-18T12:21:50.682Z,3.10
2022-11-18T12:24:27.414Z,3.37
2022-11-18T12:26:55.077Z,3.57
2022-11-18T12:29:25.811Z,3.17
2022-11-18T12:31:56.071Z,3.53
2022-11-18T12:34:25.859Z,4.87
2022-11-18T12:36:54.335Z,4.50
2022-11-18T12:39:24.892Z,6.37
2022-11-18T12:42:10.333Z,3.53
2022-11-18T12:44:39.661Z,4.33
2022-11-18T12:47:14.503Z,4.03
2022-11-18T12:49:44.981Z,3.77
2022-11-18T12:52:32.893Z,4.13
2022-11-18T12:55:03.053Z,19.30
2022-11-18T12:57:34.943Z,5.23
2022-11-18T13:00:24.600Z,4.67
2022-11-18T13:02:57.013Z,4.07
2022-11-18T13:05:27.187Z,4.10
2022-11-18T13:08:15.321Z,3.77
2022-11-18T13:11:14.380Z,4.63
2022-11-18T13:13:42.725Z,4.53
2022-11-18T13:16:42.695Z,4.20
2022-11-18T13:19:20.947Z,4.20
2022-11-18T13:22:16.854Z,4.67
2022-11-18T13:24:53.907Z,5.00
2022-11-18T13:27:49.760Z,4.40
2022-11-18T13:30:18.989Z,5.23
2022-11-18T13:32:49.190Z,5.07
2022-11-18T13:35:22.214Z,5.37
2022-11-18T13:37:58.865Z,5.30
2022-11-18T13:41:03.845Z,4.97
2022-11-18T13:43:51.440Z,3.90
2022-11-18T13:46:22.295Z,4.30
2022-11-18T13:48:56.874Z,4.40
2022-11-18T13:51:25.466Z,4.77
2022-11-18T13:53:52.977Z,5.17
2022-11-18T13:56:27.949Z,5.73
2022-11-18T13:59:18.159Z,5.40
2022-11-18T14:01:48.850Z,5.93
2022-11-18T14:04:29.632Z,6.57
2022-11-18T14:07:22.632Z,5.37
2022-11-18T14:10:03.046Z,5.23
2022-11-18T14:12:33.124Z,6.53
2022-11-18T14:15:29.651Z,6.60
2022-11-18T14:17:59.207Z,5.77
2022-11-18T14:20:29.078Z,8.57
2022-11-18T14:23:01.370Z,7.70
2022-11-18T14:25:30.356Z,7.70
2022-11-18T14:28:11.629Z,9.53
2022-11-18T14:30:43.029Z,8.37
2022-11-18T14:33:25.662Z,7.97
2022-11-18T14:35:59.481Z,8.07
2022-11-18T14:38:47.677Z,7.87
2022-11-18T14:41:45.773Z,7.93
2022-11-18T14:44:14.256Z,7.10
2022-11-18T14:46:44.308Z,10.13
2022-11-18T14:49:22.535Z,8.43
2022-11-18T14:51:51.616Z,10.60
2022-11-18T14:54:26.501Z,8.80
2022-11-18T14:57:03.633Z,10.63
2022-11-18T14:59:32.141Z,8.80
2022-11-18T15:01:59.698Z,9.17
2022-11-18T15:04:30.079Z,11.00
2022-11-18T15:06:58.890Z,11.60
2022-11-18T15:09:30.386Z,11.47
2022-11-18T15:11:57.684Z,9.40
2022-11-18T15:14:25.357Z,10.10
2022-11-18T15:16:54.336Z,11.80
2022-11-18T15:19:22.452Z,13.67
2022-11-18T15:21:49.605Z,12.10
2022-11-18T15:24:17.423Z,12.27
2022-11-18T15:26:47.020Z,8.60
2022-11-18T15:29:23.481Z,9.73
2022-11-18T15:31:52.099Z,8.57
2022-11-18T15:34:21.907Z,8.23
2022-11-18T15:36:50.815Z,8.07
2022-11-18T15:39:19.886Z,9.27
2022-11-18T15:41:47.440Z,6.33
2022-11-18T15:44:16.172Z,6.43
2022-11-18T15:46:48.368Z,9.00
2022-11-18T15:49:18.504Z,8.63
2022-11-18T15:51:46.243Z,7.83
2022-11-18T15:54:13.890Z,7.97
2022-11-18T15:56:41.954Z,8.43
2022-11-18T15:59:16.776Z,7.20
2022-11-18T16:01:54.317Z,8.50
2022-11-18T16:04:23.067Z,8.40
2022-11-18T16:06:50.676Z,8.03
2022-11-18T16:09:18.807Z,8.77
2022-11-18T16:12:06.270Z,6.23
2022-11-18T16:14:37.167Z,7.00
2022-11-18T16:17:05.122Z,8.93
2022-11-18T16:19:33.781Z,9.03
2022-11-18T16:22:02.270Z,9.67
2022-11-18T16:24:30.596Z,9.60
2022-11-18T16:26:58.043Z,7.27
2022-11-18T16:29:26.001Z,8.40
2022-11-18T16:31:54.953Z,9.40
2022-11-18T16:34:28.636Z,9.87
2022-11-18T16:36:59.855Z,8.60
2022-11-18T16:39:28.216Z,10.07
2022-11-18T16:42:02.160Z,9.27
2022-11-18T16:44:32.159Z,8.07
2022-11-18T16:46:59.663Z,7.27
2022-11-18T16:49:28.095Z,7.93
2022-11-18T16:51:56.904Z,7.73
2022-11-18T16:54:29.479Z,6.23
2022-11-18T16:56:58.945Z,7.60
2022-11-18T16:59:28.993Z,5.87
2022-11-18T17:02:03.663Z,7.30
2022-11-18T17:04:32.584Z,7.90
2022-11-18T17:07:00.395Z,9.00
2022-11-18T17:09:28.009Z,10.90
2022-11-18T17:11:57.032Z,9.87
2022-11-18T17:14:27.099Z,8.30
2022-11-18T17:16:56.201Z,10.33
2022-11-18T17:19:26.585Z,9.53
2022-11-18T17:21:56.753Z,8.83
2022-11-18T17:24:25.322Z,9.00
2022-11-18T17:26:52.947Z,10.83
2022-11-18T17:29:22.172Z,9.93
2022-11-18T17:31:49.445Z,8.53
2022-11-18T17:34:17.548Z,10.60
2022-11-18T17:36:46.277Z,10.93
2022-11-18T17:39:17.757Z,8.40
2022-11-18T17:42:04.493Z,8.87
2022-11-18T17:44:32.072Z,8.27
2022-11-18T17:46:59.301Z,9.40
2022-11-18T17:49:26.957Z,7.17
2022-11-18T17:51:55.149Z,9.00
2022-11-18T17:54:23.109Z,7.83
2022-11-18T17:56:54.286Z,7.83
2022-11-18T17:59:23.251Z,10.53
2022-11-18T18:01:58.581Z,9.67
2022-11-18T18:04:26.633Z,8.97
2022-11-18T18:06:55.190Z,9.70
2022-11-18T18:09:30.926Z,8.67
2022-11-18T18:12:20.224Z,8.50
2022-11-18T18:14:47.307Z,7.90
2022-11-18T18:17:16.010Z,8.53
2022-11-18T18:19:43.181Z,8.37
2022-11-18T18:22:13.384Z,10.27
2022-11-18T18:24:40.781Z,7.17
2022-11-18T18:27:08.229Z,9.17
2022-11-18T18:29:37.801Z,9.83
2022-11-18T18:32:05.564Z,7.87
2022-11-18T18:34:32.767Z,9.20
2022-11-18T18:37:00.479Z,9.67
2022-11-18T18:39:28.274Z,8.77
2022-11-18T18:41:55.832Z,9.80
2022-11-18T18:44:23.560Z,10.00
2022-11-18T18:46:51.211Z,10.03
2022-11-18T18:49:20.612Z,11.33
2022-11-18T18:51:50.483Z,10.27
2022-11-18T18:54:19.439Z,9.27
2022-11-18T18:56:49.836Z,8.20
2022-11-18T18:59:16.982Z,9.30
2022-11-18T19:01:44.745Z,7.80
2022-11-18T19:04:17.613Z,10.03
2022-11-18T19:06:59.789Z,7.93
2022-11-18T19:09:27.594Z,8.97
2022-11-18T19:12:14.497Z,7.90
2022-11-18T19:14:41.910Z,8.70
2022-11-18T19:17:12.016Z,9.50
2022-11-18T19:20:00.770Z,9.83
2022-11-18T19:22:34.014Z,7.33
2022-11-18T19:25:02.048Z,7.87
2022-11-18T19:27:30.008Z,7.00
2022-11-18T19:29:57.412Z,9.53
2022-11-18T19:32:25.244Z,8.33
2022-11-18T19:34:52.551Z,6.27
2022-11-18T19:37:21.005Z,7.20
2022-11-18T19:39:48.217Z,6.20
2022-11-18T19:42:15.858Z,5.10
2022-11-18T19:44:43.859Z,4.53
2022-11-18T19:47:12.169Z,4.17
2022-11-18T19:49:39.557Z,6.20
2022-11-18T19:52:07.142Z,7.00
2022-11-18T19:54:34.391Z,4.93
2022-11-18T19:57:04.124Z,5.63
2022-11-18T19:59:31.433Z,5.00
2022-11-18T20:01:59.022Z,5.67
2022-11-18T20:04:26.422Z,5.80
2022-11-18T20:06:55.044Z,5.20
2022-11-18T20:09:22.469Z,5.43
2022-11-18T20:11:50.292Z,7.67
2022-11-18T20:14:17.975Z,8.57
2022-11-18T20:16:45.666Z,6.17
2022-11-18T20:19:17.387Z,8.80
2022-11-18T20:21:45.286Z,10.30
2022-11-18T20:24:19.003Z,11.50
2022-11-18T20:26:47.629Z,10.10
2022-11-18T20:29:14.774Z,9.93
2022-11-18T20:31:43.818Z,9.37
2022-11-18T20:34:15.571Z,9.00
2022-11-18T20:36:43.729Z,7.43
2022-11-18T20:39:15.699Z,8.47
2022-11-18T20:42:04.020Z,8.33
2022-11-18T20:44:34.118Z,8.77
2022-11-18T20:47:01.624Z,9.93
2022-11-18T20:49:28.986Z,8.03
2022-11-18T20:51:56.734Z,7.63
2022-11-18T20:54:23.893Z,8.03
2022-11-18T20:56:51.431Z,8.20
2022-11-18T20:59:18.700Z,9.20
2022-11-18T21:01:47.521Z,10.07
2022-11-18T21:04:14.766Z,9.60
2022-11-18T21:06:42.220Z,9.63
2022-11-18T21:09:10.665Z,8.10
2022-11-18T21:11:38.595Z,6.93
2022-11-18T21:14:23.275Z,6.87
2022-11-18T21:17:00.607Z,9.07
2022-11-18T21:19:28.257Z,10.50
2022-11-18T21:21:56.807Z,8.80
2022-11-18T21:24:28.387Z,9.50
2022-11-18T21:26:56.798Z,10.83
2022-11-18T21:29:30.985Z,9.40
2022-11-18T21:32:02.335Z,9.43
2022-11-18T21:34:30.200Z,9.43
2022-11-18T21:36:58.291Z,7.63
2022-11-18T21:39:26.052Z,7.67
2022-11-18T21:41:56.742Z,8.63
2022-11-18T21:44:25.455Z,7.93
2022-11-18T21:46:53.243Z,7.13
2022-11-18T21:49:21.354Z,8.33
2022-11-18T21:51:49.070Z,8.27
2022-11-18T21:54:18.405Z,9.83
2022-11-18T21:56:46.040Z,6.07
2022-11-18T21:59:14.185Z,7.73
2022-11-18T22:01:41.699Z,6.53
2022-11-18T22:04:29.704Z,10.97
2022-11-18T22:06:57.453Z,7.30
2022-11-18T22:09:24.587Z,9.40
2022-11-18T22:11:52.194Z,8.87
2022-11-18T22:14:19.624Z,9.80
2022-11-18T22:16:47.184Z,9.00
2022-11-18T22:19:14.307Z,8.20
2022-11-18T22:21:41.770Z,8.30
2022-11-18T22:24:09.580Z,10.00
2022-11-18T22:26:37.366Z,9.33
2022-11-18T22:29:04.379Z,8.77
2022-11-18T22:31:31.941Z,8.67
2022-11-18T22:33:59.304Z,8.90
2022-11-18T22:36:27.864Z,9.03
2022-11-18T22:38:55.857Z,8.30
2022-11-18T22:41:44.523Z,7.67
2022-11-18T22:44:15.539Z,8.10
2022-11-18T22:46:45.560Z,6.43
2022-11-18T22:49:13.100Z,7.67
2022-11-18T22:51:40.944Z,8.63
2022-11-18T22:54:38.505Z,8.23
2022-11-18T22:56:57.612Z,8.70
2022-11-18T22:59:25.572Z,10.53
2022-11-18T23:01:54.021Z,10.17
2022-11-18T23:04:21.589Z,8.47
2022-11-18T23:06:49.908Z,9.50
2022-11-18T23:09:17.760Z,11.30
2022-11-18T23:12:04.030Z,10.53
2022-11-18T23:14:31.696Z,10.53
2022-11-18T23:16:59.823Z,8.63
2022-11-18T23:19:30.341Z,8.60
2022-11-18T23:21:58.320Z,11.03
2022-11-18T23:24:25.621Z,9.10
2022-11-18T23:26:53.325Z,9.90
2022-11-18T23:29:21.387Z,10.00
2022-11-18T23:31:50.068Z,10.83
2022-11-18T23:34:17.405Z,9.33
2022-11-18T23:36:45.304Z,8.93
2022-11-18T23:39:13.953Z,9.07
2022-11-18T23:41:41.794Z,9.47
2022-11-18T23:44:09.300Z,7.77
2022-11-18T23:46:36.748Z,7.63
2022-11-18T23:49:08.328Z,7.90
2022-11-18T23:51:36.199Z,9.50
2022-11-18T23:54:03.336Z,8.53
2022-11-18T23:56:36.413Z,7.73
2022-11-18T23:59:06.131Z,8.93
